Terminal Aerodrome Forecast
Issued by NWS

Current Version | Previous Version | Text Only | Print | Product List | Glossary On
Versions: 1 2 3 4 5 6 7 8 9 10 11 12 13 14 15 16 17 18
000
FTUS42 KTAE 171200 RRA
TAFVLD
TAF
KVLD 171202Z 1712/1812 06006KT P6SM BKN025
     FM171400 07011G18KT P6SM BKN025
     FM180500 08009KT 5SM RA OVC008=

USA.gov is the U.S. government's official web portal to all federal, state and local government web resources and services.